sensor_id;sensor_type;location;lat;lon;timestamp;pressure;altitude;pressure_sealevel;temperature;humidity
74125;BME280;62475;52.192;5.396;2022-11-25T00:01:21;100964.00;;;7.84;100.00
74125;BME280;62475;52.192;5.396;2022-11-25T00:03:47;100953.06;;;7.74;100.00
74125;BME280;62475;52.192;5.396;2022-11-25T00:06:24;100951.16;;;7.74;100.00
74125;BME280;62475;52.192;5.396;2022-11-25T00:08:55;100955.25;;;7.77;100.00
74125;BME280;62475;52.192;5.396;2022-11-25T00:11:20;100934.22;;;7.67;100.00
74125;BME280;62475;52.192;5.396;2022-11-25T00:13:47;100945.97;;;7.73;100.00
74125;BME280;62475;52.192;5.396;2022-11-25T00:16:15;100941.56;;;7.67;100.00
74125;BME280;62475;52.192;5.396;2022-11-25T00:18:45;100932.81;;;7.70;100.00
74125;BME280;62475;52.192;5.396;2022-11-25T00:21:13;100941.31;;;7.73;100.00
74125;BME280;62475;52.192;5.396;2022-11-25T00:23:38;100944.59;;;7.75;100.00
74125;BME280;62475;52.192;5.396;2022-11-25T00:26:16;100939.69;;;7.72;100.00
74125;BME280;62475;52.192;5.396;2022-11-25T00:28:43;100936.94;;;7.72;100.00
74125;BME280;62475;52.192;5.396;2022-11-25T00:31:11;100940.78;;;7.71;100.00
74125;BME280;62475;52.192;5.396;2022-11-25T00:33:37;100935.03;;;7.73;100.00
74125;BME280;62475;52.192;5.396;2022-11-25T00:36:04;100958.53;;;7.74;100.00
74125;BME280;62475;52.192;5.396;2022-11-25T00:38:30;100930.38;;;7.68;100.00
74125;BME280;62475;52.192;5.396;2022-11-25T00:40:55;100919.16;;;7.60;100.00
74125;BME280;62475;52.192;5.396;2022-11-25T00:43:39;100930.09;;;7.70;100.00
74125;BME280;62475;52.192;5.396;2022-11-25T00:46:23;100904.38;;;7.51;100.00
74125;BME280;62475;52.192;5.396;2022-11-25T00:48:48;100929.00;;;7.66;100.00
74125;BME280;62475;52.192;5.396;2022-11-25T00:51:14;100905.22;;;7.51;100.00
74125;BME280;62475;52.192;5.396;2022-11-25T00:53:39;100935.03;;;7.68;100.00
74125;BME280;62475;52.192;5.396;2022-11-25T00:56:05;100935.84;;;7.68;100.00
74125;BME280;62475;52.192;5.396;2022-11-25T00:58:40;100924.09;;;7.68;100.00
74125;BME280;62475;52.192;5.396;2022-11-25T01:01:06;100928.75;;;7.67;100.00
74125;BME280;62475;52.192;5.396;2022-11-25T01:03:32;100918.09;;;7.61;100.00
74125;BME280;62475;52.192;5.396;2022-11-25T01:06:03;100926.28;;;7.66;100.00
74125;BME280;62475;52.192;5.396;2022-11-25T01:08:30;100911.78;;;7.60;100.00
74125;BME280;62475;52.192;5.396;2022-11-25T01:11:04;100905.22;;;7.51;100.00
74125;BME280;62475;52.192;5.396;2022-11-25T01:13:29;100919.72;;;7.62;100.00
74125;BME280;62475;52.192;5.396;2022-11-25T01:15:55;100924.06;;;7.63;100.00
74125;BME280;62475;52.192;5.396;2022-11-25T01:18:20;100893.19;;;7.42;100.00
74125;BME280;62475;52.192;5.396;2022-11-25T01:20:45;100924.06;;;7.63;100.00
74125;BME280;62475;52.192;5.396;2022-11-25T01:23:11;100918.88;;;7.61;100.00
74125;BME280;62475;52.192;5.396;2022-11-25T01:25:37;100919.44;;;7.58;100.00
74125;BME280;62475;52.192;5.396;2022-11-25T01:28:03;100923.53;;;7.66;100.00
74125;BME280;62475;52.192;5.396;2022-11-25T01:30:28;100926.00;;;7.67;100.00
74125;BME280;62475;52.192;5.396;2022-11-25T01:32:53;100932.81;;;7.70;100.00
74125;BME280;62475;52.192;5.396;2022-11-25T01:35:19;100907.41;;;7.54;100.00
74125;BME280;62475;52.192;5.396;2022-11-25T01:37:45;100935.84;;;7.68;100.00
74125;BME280;62475;52.192;5.396;2022-11-25T01:40:11;100934.75;;;7.69;100.00
74125;BME280;62475;52.192;5.396;2022-11-25T01:42:47;100941.03;;;7.70;100.00
74125;BME280;62475;52.192;5.396;2022-11-25T01:45:27;100935.56;;;7.70;100.00
74125;BME280;62475;52.192;5.396;2022-11-25T01:47:59;100945.69;;;7.69;100.00
74125;BME280;62475;52.192;5.396;2022-11-25T01:50:27;100951.97;;;7.70;100.00
74125;BME280;62475;52.192;5.396;2022-11-25T01:52:54;100922.72;;;7.55;100.00
74125;BME280;62475;52.192;5.396;2022-11-25T01:55:25;100961.53;;;7.72;100.00
74125;BME280;62475;52.192;5.396;2022-11-25T01:57:57;100955.81;;;7.74;100.00
74125;BME280;62475;52.192;5.396;2022-11-25T02:00:24;100924.91;;;7.53;100.00
74125;BME280;62475;52.192;5.396;2022-11-25T02:02:51;100961.00;;;7.75;100.00
74125;BME280;62475;52.192;5.396;2022-11-25T02:05:21;100968.13;;;7.76;100.00
74125;BME280;62475;52.192;5.396;2022-11-25T02:07:50;100937.50;;;7.64;100.00
74125;BME280;62475;52.192;5.396;2022-11-25T02:10:21;100935.03;;;7.68;100.00
74125;BME280;62475;52.192;5.396;2022-11-25T02:12:48;100930.09;;;7.65;100.00
74125;BME280;62475;52.192;5.396;2022-11-25T02:15:14;100958.00;;;7.87;100.00
74125;BME280;62475;52.192;5.396;2022-11-25T02:17:41;100958.81;;;7.92;100.00
74125;BME280;62475;52.192;5.396;2022-11-25T02:20:09;100953.34;;;7.87;100.00
74125;BME280;62475;52.192;5.396;2022-11-25T02:22:46;100962.66;;;7.96;100.00
74125;BME280;62475;52.192;5.396;2022-11-25T02:25:23;100967.28;;;8.01;100.00
74125;BME280;62475;52.192;5.396;2022-11-25T02:27:52;100967.84;;;8.03;100.00
74125;BME280;62475;52.192;5.396;2022-11-25T02:30:19;100972.50;;;8.07;100.00
74125;BME280;62475;52.192;5.396;2022-11-25T02:32:45;100944.84;;;7.94;100.00
74125;BME280;62475;52.192;5.396;2022-11-25T02:35:29;100963.19;;;8.14;100.00
74125;BME280;62475;52.192;5.396;2022-11-25T02:37:59;100965.91;;;8.19;100.00
74125;BME280;62475;52.192;5.396;2022-11-25T02:40:28;100963.44;;;8.17;100.00
74125;BME280;62475;52.192;5.396;2022-11-25T02:42:55;100970.59;;;8.18;100.00
74125;BME280;62475;52.192;5.396;2022-11-25T02:45:30;100956.06;;;8.18;100.00
74125;BME280;62475;52.192;5.396;2022-11-25T02:48:03;100933.66;;;8.11;100.00
74125;BME280;62475;52.192;5.396;2022-11-25T02:50:28;100894.81;;;7.98;100.00
74125;BME280;62475;52.192;5.396;2022-11-25T02:52:53;100919.66;;;8.22;100.00
74125;BME280;62475;52.192;5.396;2022-11-25T02:55:19;100918.34;;;8.10;100.00
74125;BME280;62475;52.192;5.396;2022-11-25T02:57:44;100952.78;;;8.16;100.00
74125;BME280;62475;52.192;5.396;2022-11-25T03:00:10;100942.41;;;8.07;100.00
74125;BME280;62475;52.192;5.396;2022-11-25T03:02:35;100922.16;;;7.98;100.00
74125;BME280;62475;52.192;5.396;2022-11-25T03:05:00;100941.00;;;8.15;100.00
74125;BME280;62475;52.192;5.396;2022-11-25T03:07:26;100967.59;;;8.25;100.00
74125;BME280;62475;52.192;5.396;2022-11-25T03:09:51;100971.16;;;8.25;100.00
74125;BME280;62475;52.192;5.396;2022-11-25T03:12:16;100953.06;;;8.19;100.00
74125;BME280;62475;52.192;5.396;2022-11-25T03:14:44;100974.16;;;8.29;100.00
74125;BME280;62475;52.192;5.396;2022-11-25T03:17:10;100973.88;;;8.30;100.00
74125;BME280;62475;52.192;5.396;2022-11-25T03:19:35;100959.38;;;8.25;100.00
74125;BME280;62475;52.192;5.396;2022-11-25T03:22:01;100977.97;;;8.33;100.00
74125;BME280;62475;52.192;5.396;2022-11-25T03:24:26;100963.47;;;8.32;100.00
74125;BME280;62475;52.192;5.396;2022-11-25T03:26:51;100950.34;;;8.24;100.00
74125;BME280;62475;52.192;5.396;2022-11-25T03:29:17;100965.94;;;8.34;100.00
74125;BME280;62475;52.192;5.396;2022-11-25T03:31:42;100969.22;;;8.36;100.00
74125;BME280;62475;52.192;5.396;2022-11-25T03:34:07;100969.22;;;8.36;100.00
74125;BME280;62475;52.192;5.396;2022-11-25T03:36:32;100973.03;;;8.40;100.00
74125;BME280;62475;52.192;5.396;2022-11-25T03:38:58;100968.41;;;8.35;100.00
74125;BME280;62475;52.192;5.396;2022-11-25T03:41:23;100980.16;;;8.46;100.00
74125;BME280;62475;52.192;5.396;2022-11-25T03:43:48;100980.16;;;8.46;100.00
74125;BME280;62475;52.192;5.396;2022-11-25T03:46:14;100989.16;;;8.41;100.00
74125;BME280;62475;52.192;5.396;2022-11-25T03:48:39;100960.47;;;8.34;100.00
74125;BME280;62475;52.192;5.396;2022-11-25T03:51:04;100978.78;;;8.43;100.00
74125;BME280;62475;52.192;5.396;2022-11-25T03:53:30;100964.53;;;8.41;100.00
74125;BME280;62475;52.192;5.396;2022-11-25T03:55:55;100978.22;;;8.46;100.00
74125;BME280;62475;52.192;5.396;2022-11-25T03:58:20;100980.44;;;8.44;100.00
74125;BME280;62475;52.192;5.396;2022-11-25T04:00:46;100993.28;;;8.44;100.00
74125;BME280;62475;52.192;5.396;2022-11-25T04:03:11;100957.19;;;8.27;100.00
74125;BME280;62475;52.192;5.396;2022-11-25T04:05:36;100995.75;;;8.50;100.00
74125;BME280;62475;52.192;5.396;2022-11-25T04:08:02;100991.91;;;8.41;100.00
74125;BME280;62475;52.192;5.396;2022-11-25T04:10:27;100991.63;;;8.38;100.00
74125;BME280;62475;52.192;5.396;2022-11-25T04:12:52;100997.94;;;8.43;100.00
74125;BME280;62475;52.192;5.396;2022-11-25T04:15:18;101001.78;;;8.47;100.00
74125;BME280;62475;52.192;5.396;2022-11-25T04:17:43;100991.91;;;8.41;100.00
74125;BME280;62475;52.192;5.396;2022-11-25T04:20:10;101005.88;;;8.40;100.00
74125;BME280;62475;52.192;5.396;2022-11-25T04:22:35;101006.44;;;8.37;100.00
74125;BME280;62475;52.192;5.396;2022-11-25T04:25:01;101017.09;;;8.38;100.00
74125;BME280;62475;52.192;5.396;2022-11-25T04:27:26;101014.91;;;8.40;100.00
74125;BME280;62475;52.192;5.396;2022-11-25T04:29:54;101014.09;;;8.35;100.00
74125;BME280;62475;52.192;5.396;2022-11-25T04:32:19;101021.47;;;8.39;100.00
74125;BME280;62475;52.192;5.396;2022-11-25T04:34:45;101015.22;;;8.29;100.00
74125;BME280;62475;52.192;5.396;2022-11-25T04:37:10;101030.50;;;8.35;100.00
74125;BME280;62475;52.192;5.396;2022-11-25T04:39:35;101031.91;;;8.37;100.00
74125;BME280;62475;52.192;5.396;2022-11-25T04:42:00;101040.38;;;8.31;100.00
74125;BME280;62475;52.192;5.396;2022-11-25T04:44:44;101013.53;;;8.23;100.00
74125;BME280;62475;52.192;5.396;2022-11-25T04:47:10;101046.38;;;8.33;100.00
74125;BME280;62475;52.192;5.396;2022-11-25T04:49:35;101044.19;;;8.35;100.00
74125;BME280;62475;52.192;5.396;2022-11-25T04:52:00;101037.91;;;8.29;100.00
74125;BME280;62475;52.192;5.396;2022-11-25T04:54:26;101021.75;;;8.13;100.00
74125;BME280;62475;52.192;5.396;2022-11-25T04:56:51;101054.59;;;8.33;100.00
74125;BME280;62475;52.192;5.396;2022-11-25T04:59:16;101056.25;;;8.29;100.00
74125;BME280;62475;52.192;5.396;2022-11-25T05:02:00;101047.44;;;8.17;100.00
74125;BME280;62475;52.192;5.396;2022-11-25T05:04:26;101022.25;;;7.99;100.00
74125;BME280;62475;52.192;5.396;2022-11-25T05:06:51;101062.78;;;8.18;100.00
74125;BME280;62475;52.192;5.396;2022-11-25T05:09:17;101054.03;;;8.16;100.00
74125;BME280;62475;52.192;5.396;2022-11-25T05:11:42;101076.75;;;8.21;100.00
74125;BME280;62475;52.192;5.396;2022-11-25T05:14:08;101081.94;;;8.23;100.00
74125;BME280;62475;52.192;5.396;2022-11-25T05:16:33;101090.69;;;8.20;100.00
74125;BME280;62475;52.192;5.396;2022-11-25T05:18:59;101083.00;;;8.06;100.00
74125;BME280;62475;52.192;5.396;2022-11-25T05:21:24;101089.31;;;8.02;100.00
74125;BME280;62475;52.192;5.396;2022-11-25T05:23:50;101069.53;;;7.75;100.00
74125;BME280;62475;52.192;5.396;2022-11-25T05:26:15;101005.22;;;7.47;100.00
74125;BME280;62475;52.192;5.396;2022-11-25T05:28:40;101082.44;;;7.99;100.00
74125;BME280;62475;52.192;5.396;2022-11-25T05:31:05;101106.50;;;7.97;100.00
74125;BME280;62475;52.192;5.396;2022-11-25T05:33:31;101102.69;;;7.98;100.00
74125;BME280;62475;52.192;5.396;2022-11-25T05:36:01;101100.47;;;7.85;100.00
74125;BME280;62475;52.192;5.396;2022-11-25T05:38:27;101109.22;;;7.87;100.00
74125;BME280;62475;52.192;5.396;2022-11-25T05:40:53;101070.34;;;7.65;100.00
74125;BME280;62475;52.192;5.396;2022-11-25T05:43:23;101103.19;;;7.85;100.00
74125;BME280;62475;52.192;5.396;2022-11-25T05:45:49;101109.22;;;7.82;100.00
74125;BME280;62475;52.192;5.396;2022-11-25T05:48:14;101094.44;;;7.78;100.00
74125;BME280;62475;52.192;5.396;2022-11-25T05:50:39;101093.66;;;7.88;100.00
74125;BME280;62475;52.192;5.396;2022-11-25T05:53:05;101083.50;;;7.78;100.00
74125;BME280;62475;52.192;5.396;2022-11-25T05:55:30;101108.44;;;7.92;100.00
74125;BME280;62475;52.192;5.396;2022-11-25T05:57:57;101098.84;;;7.89;100.00
74125;BME280;62475;52.192;5.396;2022-11-25T06:00:23;101099.38;;;7.86;100.00
74125;BME280;62475;52.192;5.396;2022-11-25T06:02:49;101084.03;;;7.70;100.00
74125;BME280;62475;52.192;5.396;2022-11-25T06:05:15;101106.19;;;7.79;100.00
74125;BME280;62475;52.192;5.396;2022-11-25T06:07:40;101109.47;;;7.81;100.00
74125;BME280;62475;52.192;5.396;2022-11-25T06:10:07;101125.06;;;7.85;100.00
74125;BME280;62475;52.192;5.396;2022-11-25T06:12:32;101122.88;;;7.82;100.00
74125;BME280;62475;52.192;5.396;2022-11-25T06:14:57;101115.22;;;7.79;100.00
74125;BME280;62475;52.192;5.396;2022-11-25T06:17:23;101122.31;;;7.80;100.00
74125;BME280;62475;52.192;5.396;2022-11-25T06:19:51;101110.28;;;7.71;100.00
74125;BME280;62475;52.192;5.396;2022-11-25T06:22:16;101107.50;;;7.61;100.00
74125;BME280;62475;52.192;5.396;2022-11-25T06:24:41;101122.03;;;7.77;100.00
74125;BME280;62475;52.192;5.396;2022-11-25T06:27:07;101133.81;;;7.77;100.00
74125;BME280;62475;52.192;5.396;2022-11-25T06:29:32;101133.81;;;7.77;100.00
74125;BME280;62475;52.192;5.396;2022-11-25T06:32:02;101140.88;;;7.68;100.00
74125;BME280;62475;52.192;5.396;2022-11-25T06:34:27;101140.59;;;7.70;100.00
74125;BME280;62475;52.192;5.396;2022-11-25T06:36:52;101121.16;;;7.61;100.00
74125;BME280;62475;52.192;5.396;2022-11-25T06:39:18;101132.38;;;7.60;100.00
74125;BME280;62475;52.192;5.396;2022-11-25T06:41:43;101134.25;;;7.54;100.00
74125;BME280;62475;52.192;5.396;2022-11-25T06:44:09;101151.81;;;7.68;100.00
74125;BME280;62475;52.192;5.396;2022-11-25T06:46:34;101149.63;;;7.70;100.00
74125;BME280;62475;52.192;5.396;2022-11-25T06:49:00;101160.28;;;7.62;100.00
74125;BME280;62475;52.192;5.396;2022-11-25T06:51:26;101166.00;;;7.60;100.00
74125;BME280;62475;52.192;5.396;2022-11-25T06:54:06;101178.06;;;7.64;100.00
74125;BME280;62475;52.192;5.396;2022-11-25T06:56:35;101176.94;;;7.60;100.00
74125;BME280;62475;52.192;5.396;2022-11-25T06:59:00;101182.69;;;7.64;100.00
74125;BME280;62475;52.192;5.396;2022-11-25T07:01:27;101180.81;;;7.64;100.00
74125;BME280;62475;52.192;5.396;2022-11-25T07:03:58;101181.59;;;7.65;100.00
74125;BME280;62475;52.192;5.396;2022-11-25T07:06:25;101174.19;;;7.55;100.00
74125;BME280;62475;52.192;5.396;2022-11-25T07:08:50;101181.88;;;7.63;100.00
74125;BME280;62475;52.192;5.396;2022-11-25T07:11:19;101174.97;;;7.51;100.00
74125;BME280;62475;52.192;5.396;2022-11-25T07:13:45;101193.63;;;7.59;100.00
74125;BME280;62475;52.192;5.396;2022-11-25T07:16:11;101202.63;;;7.59;100.00
74125;BME280;62475;52.192;5.396;2022-11-25T07:18:38;101191.88;;;7.43;100.00
74125;BME280;62475;52.192;5.396;2022-11-25T07:21:05;101204.56;;;7.59;100.00
74125;BME280;62475;52.192;5.396;2022-11-25T07:23:32;101203.97;;;7.52;100.00
74125;BME280;62475;52.192;5.396;2022-11-25T07:26:06;101206.44;;;7.53;100.00
74125;BME280;62475;52.192;5.396;2022-11-25T07:28:32;101213.78;;;7.48;100.00
74125;BME280;62475;52.192;5.396;2022-11-25T07:31:10;101203.91;;;7.42;100.00
74125;BME280;62475;52.192;5.396;2022-11-25T07:33:37;101214.84;;;7.42;100.00
74125;BME280;62475;52.192;5.396;2022-11-25T07:36:04;101220.03;;;7.43;100.00
74125;BME280;62475;52.192;5.396;2022-11-25T07:38:31;101227.97;;;7.45;100.00
74125;BME280;62475;52.192;5.396;2022-11-25T07:41:23;101224.69;;;7.43;100.00
74125;BME280;62475;52.192;5.396;2022-11-25T07:43:49;101208.47;;;7.26;100.00
74125;BME280;62475;52.192;5.396;2022-11-25T07:48:45;101238.59;;;7.41;100.00
74125;BME280;62475;52.192;5.396;2022-11-25T07:51:17;101245.69;;;7.37;100.00
74125;BME280;62475;52.192;5.396;2022-11-25T07:53:44;101250.88;;;7.39;100.00
74125;BME280;62475;52.192;5.396;2022-11-25T07:56:09;101256.88;;;7.36;100.00
74125;BME280;62475;52.192;5.396;2022-11-25T07:58:35;101251.38;;;7.31;100.00
74125;BME280;62475;52.192;5.396;2022-11-25T08:01:04;101240.19;;;7.32;100.00
74125;BME280;62475;52.192;5.396;2022-11-25T08:03:34;101246.84;;;7.46;100.00
74125;BME280;62475;52.192;5.396;2022-11-25T08:06:05;101257.22;;;7.49;100.00
74125;BME280;62475;52.192;5.396;2022-11-25T08:08:32;101242.97;;;7.42;100.00
74125;BME280;62475;52.192;5.396;2022-11-25T08:10:57;101263.03;;;7.58;100.00
74125;BME280;62475;52.192;5.396;2022-11-25T08:13:22;101275.13;;;7.67;100.00
74125;BME280;62475;52.192;5.396;2022-11-25T08:15:48;101268.81;;;7.66;100.00
74125;BME280;62475;52.192;5.396;2022-11-25T08:18:13;101264.72;;;7.64;100.00
74125;BME280;62475;52.192;5.396;2022-11-25T08:20:40;101270.78;;;7.71;100.00
74125;BME280;62475;52.192;5.396;2022-11-25T08:23:06;101276.53;;;7.74;100.00
74125;BME280;62475;52.192;5.396;2022-11-25T08:25:31;101284.19;;;7.77;100.00
74125;BME280;62475;52.192;5.396;2022-11-25T08:28:00;101308.38;;;7.90;100.00
74125;BME280;62475;52.192;5.396;2022-11-25T08:30:26;101289.72;;;7.87;100.00
74125;BME280;62475;52.192;5.396;2022-11-25T08:32:52;101301.84;;;8.01;100.00
74125;BME280;62475;52.192;5.396;2022-11-25T08:35:18;101302.66;;;7.97;100.00
74125;BME280;62475;52.192;5.396;2022-11-25T08:37:43;101310.34;;;8.05;100.00
74125;BME280;62475;52.192;5.396;2022-11-25T08:40:09;101312.59;;;8.13;100.00
74125;BME280;62475;52.192;5.396;2022-11-25T08:42:35;101313.34;;;8.03;100.00
74125;BME280;62475;52.192;5.396;2022-11-25T08:45:01;101311.22;;;8.16;100.00
74125;BME280;62475;52.192;5.396;2022-11-25T08:47:26;101316.53;;;8.32;100.00
74125;BME280;62475;52.192;5.396;2022-11-25T08:49:53;101322.25;;;8.31;100.00
74125;BME280;62475;52.192;5.396;2022-11-25T08:52:19;101320.91;;;8.38;100.00
74125;BME280;62475;52.192;5.396;2022-11-25T08:54:45;101324.16;;;8.25;100.00
74125;BME280;62475;52.192;5.396;2022-11-25T08:57:11;101315.97;;;8.30;100.00
74125;BME280;62475;52.192;5.396;2022-11-25T08:59:37;101334.06;;;8.36;100.00
74125;BME280;62475;52.192;5.396;2022-11-25T09:02:04;101304.41;;;8.18;100.00
74125;BME280;62475;52.192;5.396;2022-11-25T09:04:30;101337.66;;;8.47;100.00
74125;BME280;62475;52.192;5.396;2022-11-25T09:06:55;101309.97;;;8.33;100.00
74125;BME280;62475;52.192;5.396;2022-11-25T09:09:20;101340.41;;;8.57;100.00
74125;BME280;62475;52.192;5.396;2022-11-25T09:11:46;101342.69;;;8.75;100.00
74125;BME280;62475;52.192;5.396;2022-11-25T09:14:12;101348.72;;;8.82;100.00
74125;BME280;62475;52.192;5.396;2022-11-25T09:16:40;101359.66;;;8.72;100.00
74125;BME280;62475;52.192;5.396;2022-11-25T09:19:05;101353.13;;;8.88;100.00
74125;BME280;62475;52.192;5.396;2022-11-25T09:21:31;101359.44;;;8.93;100.00
74125;BME280;62475;52.192;5.396;2022-11-25T09:23:56;101353.66;;;8.85;100.00
74125;BME280;62475;52.192;5.396;2022-11-25T09:26:24;101361.31;;;8.83;100.00
74125;BME280;62475;52.192;5.396;2022-11-25T09:28:50;101361.09;;;8.89;100.00
74125;BME280;62475;52.192;5.396;2022-11-25T09:31:16;101365.19;;;8.92;100.00
74125;BME280;62475;52.192;5.396;2022-11-25T09:33:41;101360.53;;;8.82;100.00
74125;BME280;62475;52.192;5.396;2022-11-25T09:36:08;101372.84;;;8.90;100.00
74125;BME280;62475;52.192;5.396;2022-11-25T09:38:33;101386.59;;;9.00;100.00
74125;BME280;62475;52.192;5.396;2022-11-25T09:41:37;101379.47;;;9.04;100.00
74125;BME280;62475;52.192;5.396;2022-11-25T09:44:38;101391.53;;;9.03;100.00
74125;BME280;62475;52.192;5.396;2022-11-25T09:47:38;101389.91;;;9.17;100.00
74125;BME280;62475;52.192;5.396;2022-11-25T09:50:12;101397.59;;;9.20;100.00
74125;BME280;62475;52.192;5.396;2022-11-25T09:55:46;101387.75;;;9.29;100.00
74125;BME280;62475;52.192;5.396;2022-11-25T09:58:23;101404.19;;;9.34;100.00
74125;BME280;62475;52.192;5.396;2022-11-25T10:00:54;101391.03;;;9.41;100.00
74125;BME280;62475;52.192;5.396;2022-11-25T10:03:29;101402.00;;;9.46;100.00
74125;BME280;62475;52.192;5.396;2022-11-25T10:08:40;101407.78;;;9.55;100.00
74125;BME280;62475;52.192;5.396;2022-11-25T10:17:08;101421.78;;;9.58;100.00
74125;BME280;62475;52.192;5.396;2022-11-25T10:20:06;101421.22;;;9.66;100.00
74125;BME280;62475;52.192;5.396;2022-11-25T10:22:38;101420.97;;;9.73;100.00
74125;BME280;62475;52.192;5.396;2022-11-25T10:25:26;101388.31;;;9.61;100.00
74125;BME280;62475;52.192;5.396;2022-11-25T10:28:03;101425.06;;;9.75;100.00
74125;BME280;62475;52.192;5.396;2022-11-25T10:33:32;101426.44;;;9.93;100.00
74125;BME280;62475;52.192;5.396;2022-11-25T10:36:04;101426.69;;;10.06;100.00
74125;BME280;62475;52.192;5.396;2022-11-25T10:38:38;101425.63;;;10.02;100.00
74125;BME280;62475;52.192;5.396;2022-11-25T10:41:05;101438.25;;;10.13;100.00
74125;BME280;62475;52.192;5.396;2022-11-25T10:43:31;101442.63;;;10.09;100.00
74125;BME280;62475;52.192;5.396;2022-11-25T10:46:06;101448.94;;;10.20;100.00
74125;BME280;62475;52.192;5.396;2022-11-25T10:48:44;101443.72;;;10.18;99.38
74125;BME280;62475;52.192;5.396;2022-11-25T10:51:30;101460.72;;;10.30;99.67
74125;BME280;62475;52.192;5.396;2022-11-25T10:56:52;101459.31;;;10.53;99.70
74125;BME280;62475;52.192;5.396;2022-11-25T10:59:36;101462.63;;;10.50;99.38
74125;BME280;62475;52.192;5.396;2022-11-25T11:04:56;101468.69;;;10.42;99.61
74125;BME280;62475;52.192;5.396;2022-11-25T11:07:25;101475.84;;;10.33;100.00
74125;BME280;62475;52.192;5.396;2022-11-25T11:09:51;101466.75;;;10.38;99.86
74125;BME280;62475;52.192;5.396;2022-11-25T11:12:25;101477.75;;;10.53;99.06
74125;BME280;62475;52.192;5.396;2022-11-25T11:14:52;101484.31;;;10.47;99.58
74125;BME280;62475;52.192;5.396;2022-11-25T11:17:30;101479.91;;;10.61;97.70
74125;BME280;62475;52.192;5.396;2022-11-25T11:22:31;101483.50;;;10.56;98.42
74125;BME280;62475;52.192;5.396;2022-11-25T11:25:05;101486.50;;;10.60;97.93
74125;BME280;62475;52.192;5.396;2022-11-25T11:27:35;101510.09;;;10.71;98.77
74125;BME280;62475;52.192;5.396;2022-11-25T11:30:14;101516.09;;;10.83;98.18
74125;BME280;62475;52.192;5.396;2022-11-25T11:32:44;101500.75;;;10.77;98.21
74125;BME280;62475;52.192;5.396;2022-11-25T11:38:06;101520.28;;;10.70;98.41
74125;BME280;62475;52.192;5.396;2022-11-25T11:40:41;101529.31;;;10.81;98.92
74125;BME280;62475;52.192;5.396;2022-11-25T11:48:39;101527.78;;;11.23;97.19
74125;BME280;62475;52.192;5.396;2022-11-25T11:53:59;101534.22;;;11.58;95.82
74125;BME280;62475;52.192;5.396;2022-11-25T11:56:37;101538.88;;;11.62;94.88
74125;BME280;62475;52.192;5.396;2022-11-25T11:59:39;101537.03;;;11.48;95.42
74125;BME280;62475;52.192;5.396;2022-11-25T12:02:26;101539.22;;;11.51;96.02
74125;BME280;62475;52.192;5.396;2022-11-25T12:13:14;101552.84;;;11.17;96.26
74125;BME280;62475;52.192;5.396;2022-11-25T12:16:09;101550.94;;;11.07;97.40
74125;BME280;62475;52.192;5.396;2022-11-25T12:19:04;101554.19;;;11.24;97.68
74125;BME280;62475;52.192;5.396;2022-11-25T12:21:51;101557.81;;;11.10;97.01
74125;BME280;62475;52.192;5.396;2022-11-25T12:27:12;101571.88;;;10.88;99.24
74125;BME280;62475;52.192;5.396;2022-11-25T12:32:45;101587.00;;;10.91;100.00
74125;BME280;62475;52.192;5.396;2022-11-25T12:35:28;101585.31;;;11.00;100.00
74125;BME280;62475;52.192;5.396;2022-11-25T12:38:29;101590.28;;;11.03;99.88
74125;BME280;62475;52.192;5.396;2022-11-25T12:46:26;101596.38;;;11.64;97.54
74125;BME280;62475;52.192;5.396;2022-11-25T12:48:55;101601.28;;;11.77;97.14
74125;BME280;62475;52.192;5.396;2022-11-25T12:54:16;101609.34;;;11.58;96.55
74125;BME280;62475;52.192;5.396;2022-11-25T13:02:17;101610.59;;;11.86;96.12
74125;BME280;62475;52.192;5.396;2022-11-25T13:10:59;101629.41;;;11.69;97.19
74125;BME280;62475;52.192;5.396;2022-11-25T13:13:40;101627.56;;;11.39;97.58
74125;BME280;62475;52.192;5.396;2022-11-25T13:16:12;101629.81;;;11.27;96.59
74125;BME280;62475;52.192;5.396;2022-11-25T13:18:41;101635.06;;;11.18;98.33
74125;BME280;62475;52.192;5.396;2022-11-25T13:21:09;101632.00;;;11.30;98.31
74125;BME280;62475;52.192;5.396;2022-11-25T13:23:44;101636.38;;;11.41;96.69
74125;BME280;62475;52.192;5.396;2022-11-25T13:28:59;101631.34;;;11.58;96.86
74125;BME280;62475;52.192;5.396;2022-11-25T13:31:33;101642.63;;;11.67;96.74
74125;BME280;62475;52.192;5.396;2022-11-25T13:34:15;101649.19;;;11.76;96.64
74125;BME280;62475;52.192;5.396;2022-11-25T13:36:49;101640.97;;;11.61;96.16
74125;BME280;62475;52.192;5.396;2022-11-25T13:39:28;101662.16;;;11.60;96.69
74125;BME280;62475;52.192;5.396;2022-11-25T13:44:34;101658.84;;;11.68;97.63
74125;BME280;62475;52.192;5.396;2022-11-25T13:49:54;101648.97;;;11.67;95.79
74125;BME280;62475;52.192;5.396;2022-11-25T13:52:42;101672.91;;;11.67;96.92
74125;BME280;62475;52.192;5.396;2022-11-25T13:57:44;101659.97;;;11.67;94.69
74125;BME280;62475;52.192;5.396;2022-11-25T14:02:44;101682.53;;;11.64;95.87
74125;BME280;62475;52.192;5.396;2022-11-25T14:13:32;101710.09;;;11.39;97.71
74125;BME280;62475;52.192;5.396;2022-11-25T14:26:54;101734.88;;;11.14;99.34
74125;BME280;62475;52.192;5.396;2022-11-25T14:29:37;101717.84;;;10.92;100.00
74125;BME280;62475;52.192;5.396;2022-11-25T14:32:16;101734.06;;;10.88;100.00
74125;BME280;62475;52.192;5.396;2022-11-25T14:34:48;101704.34;;;10.60;100.00
74125;BME280;62475;52.192;5.396;2022-11-25T14:37:23;101741.47;;;10.63;100.00
74125;BME280;62475;52.192;5.396;2022-11-25T14:39:55;101754.63;;;10.66;100.00
74125;BME280;62475;52.192;5.396;2022-11-25T14:42:24;101753.00;;;10.65;100.00
74125;BME280;62475;52.192;5.396;2022-11-25T14:44:53;101764.22;;;10.58;100.00